createdAt,value
2018-09-27T00:01:29.287Z,102125.48
2018-09-27T00:03:57.119Z,102127.39
2018-09-27T00:06:24.880Z,102135.92
2018-09-27T00:08:52.723Z,102123.68
2018-09-27T00:11:20.532Z,102117.55
2018-09-27T00:13:48.303Z,102119.56
2018-09-27T00:16:16.100Z,102120.11
2018-09-27T00:18:43.911Z,102116.22
2018-09-27T00:21:11.768Z,102117.78
2018-09-27T00:23:39.575Z,102113.37
2018-09-27T00:26:07.975Z,102119.52
2018-09-27T00:28:36.576Z,102108.98
2018-09-27T00:31:04.473Z,102112.01
2018-09-27T00:33:32.311Z,102108.13
2018-09-27T00:36:00.100Z,102116.66
2018-09-27T00:38:27.883Z,102103.72
2018-09-27T00:40:55.696Z,102100.33
2018-09-27T00:43:23.457Z,102107.98
2018-09-27T00:45:51.268Z,102115.78
2018-09-27T00:48:19.179Z,102113.39
2018-09-27T00:50:47.175Z,102115.80
2018-09-27T00:53:15.011Z,102111.36
2018-09-27T00:55:42.864Z,102109.16
2018-09-27T00:58:10.623Z,102099.62
2018-09-27T01:00:38.747Z,102101.34
2018-09-27T01:03:06.895Z,102101.34
2018-09-27T01:05:35.243Z,102094.54
2018-09-27T01:08:03.080Z,102094.20
2018-09-27T01:10:30.892Z,102088.28
2018-09-27T01:12:58.717Z,102095.74
2018-09-27T01:15:26.546Z,102098.81
2018-09-27T01:17:54.370Z,102094.22
2018-09-27T01:20:26.495Z,102095.94
2018-09-27T01:22:54.352Z,102097.97
2018-09-27T01:25:22.092Z,102099.68
2018-09-27T01:27:49.835Z,102094.92
2018-09-27T01:30:17.823Z,102097.31
2018-09-27T01:32:45.567Z,102088.97
2018-09-27T01:35:13.368Z,102076.73
2018-09-27T01:37:41.226Z,102082.37
2018-09-27T01:40:09.071Z,102074.20
2018-09-27T01:42:40.671Z,102069.97
2018-09-27T01:45:08.564Z,102064.02
2018-09-27T01:47:36.303Z,102057.92
2018-09-27T01:50:04.222Z,102048.76
2018-09-27T01:52:31.995Z,102060.09
2018-09-27T01:54:59.811Z,102070.66
2018-09-27T01:57:27.623Z,102063.70
2018-09-27T01:59:55.420Z,102058.10
2018-09-27T02:02:23.236Z,102061.14
2018-09-27T02:04:51.070Z,102056.91
2018-09-27T02:07:18.814Z,102057.26
2018-09-27T02:09:46.573Z,102053.67
2018-09-27T02:12:14.384Z,102053.69
2018-09-27T02:14:42.179Z,102057.58
2018-09-27T02:17:09.973Z,102047.75
2018-09-27T02:19:37.824Z,102045.87
2018-09-27T02:22:05.848Z,102053.84
2018-09-27T02:24:33.673Z,102053.13
2018-09-27T02:27:01.444Z,102051.63
2018-09-27T02:29:29.281Z,102043.16
2018-09-27T02:31:57.079Z,102030.59
2018-09-27T02:34:24.971Z,102040.25
2018-09-27T02:36:52.748Z,102038.55
2018-09-27T02:39:20.495Z,102036.84
2018-09-27T02:41:48.336Z,102039.24
2018-09-27T02:44:16.756Z,102041.98
2018-09-27T02:46:44.504Z,102043.50
2018-09-27T02:49:12.316Z,102038.36
2018-09-27T02:51:40.051Z,102039.73
2018-09-27T02:54:07.925Z,102040.59
2018-09-27T02:56:35.729Z,102031.56
2018-09-27T02:59:03.486Z,102043.30
2018-09-27T03:01:31.223Z,102033.80
2018-09-27T03:03:59.040Z,102030.58
2018-09-27T03:06:26.867Z,102021.06
2018-09-27T03:08:54.607Z,102020.04
2018-09-27T03:11:22.423Z,102026.49
2018-09-27T03:13:50.357Z,102032.95
2018-09-27T03:16:18.096Z,102035.82
2018-09-27T03:18:45.892Z,102029.89
2018-09-27T03:21:13.745Z,102029.05
2018-09-27T03:23:41.557Z,102031.92
2018-09-27T03:26:09.382Z,102034.99
2018-09-27T03:28:37.247Z,102037.84
2018-09-27T03:31:05.312Z,102030.75
2018-09-27T03:33:33.171Z,102036.83
2018-09-27T03:36:00.968Z,102038.71
2018-09-27T03:38:28.779Z,102036.49
2018-09-27T03:40:56.580Z,102024.09
2018-09-27T03:43:24.427Z,102020.03
2018-09-27T03:45:52.204Z,102016.80
2018-09-27T03:48:20.106Z,102021.20
2018-09-27T03:50:47.920Z,102011.38
2018-09-27T03:53:15.748Z,102004.25
2018-09-27T03:55:43.523Z,102010.52
2018-09-27T03:58:11.272Z,102007.97
2018-09-27T04:00:39.092Z,102004.92
2018-09-27T04:03:06.937Z,102004.90
2018-09-27T04:05:34.692Z,102001.83
2018-09-27T04:08:02.519Z,101997.08
2018-09-27T04:10:30.379Z,101997.78
2018-09-27T04:12:58.112Z,101999.48
2018-09-27T04:15:28.999Z,101999.46
2018-09-27T04:17:56.780Z,102000.66
2018-09-27T04:20:24.523Z,101998.43
2018-09-27T04:22:52.391Z,101998.92
2018-09-27T04:25:20.128Z,101994.02
2018-09-27T04:27:47.948Z,101991.97
2018-09-27T04:30:15.755Z,101996.55
2018-09-27T04:32:43.563Z,101999.08
2018-09-27T04:35:11.347Z,101995.66
2018-09-27T04:37:39.140Z,101992.45
2018-09-27T04:40:07.055Z,101991.59
2018-09-27T04:42:34.800Z,101985.52
2018-09-27T04:45:02.731Z,101987.86
2018-09-27T04:47:30.463Z,101987.70
2018-09-27T04:49:58.407Z,101991.25
2018-09-27T04:52:26.385Z,101984.32
2018-09-27T04:54:54.223Z,101992.61
2018-09-27T04:57:25.100Z,101998.39
2018-09-27T04:59:53.819Z,101996.34
2018-09-27T05:02:21.623Z,101994.98
2018-09-27T05:04:49.426Z,102000.43
2018-09-27T05:07:17.240Z,101998.73
2018-09-27T05:09:45.001Z,101994.50
2018-09-27T05:12:12.774Z,101997.73
2018-09-27T05:14:40.506Z,102000.28
2018-09-27T05:17:08.392Z,101994.34
2018-09-27T05:19:36.344Z,101991.12
2018-09-27T05:22:04.116Z,101990.59
2018-09-27T05:24:31.904Z,101987.05
2018-09-27T05:26:59.728Z,101990.60
2018-09-27T05:29:27.659Z,101992.47
2018-09-27T05:31:55.433Z,101991.78
2018-09-27T05:34:23.236Z,101986.36
2018-09-27T05:36:51.135Z,101987.86
2018-09-27T05:39:18.904Z,101994.81
2018-09-27T05:41:47.027Z,101994.02
2018-09-27T05:44:14.889Z,102002.78
2018-09-27T05:46:42.623Z,101994.16
2018-09-27T05:49:10.411Z,101991.76
2018-09-27T05:51:38.210Z,101991.10
2018-09-27T05:54:05.938Z,101992.14
2018-09-27T05:56:33.756Z,101997.76
2018-09-27T05:59:01.564Z,102004.54
2018-09-27T06:01:33.214Z,101998.45
2018-09-27T06:04:01.092Z,102008.95
2018-09-27T06:06:28.879Z,101993.02
2018-09-27T06:08:56.718Z,101999.47
2018-09-27T06:11:24.536Z,102003.76
2018-09-27T06:13:52.204Z,101998.65
2018-09-27T06:16:19.984Z,102000.36
2018-09-27T06:18:47.793Z,101992.02
2018-09-27T06:21:15.570Z,101991.02
2018-09-27T06:23:43.504Z,101992.22
2018-09-27T06:26:11.338Z,101999.00
2018-09-27T06:28:39.075Z,102000.53
2018-09-27T06:31:07.143Z,101994.08
2018-09-27T06:33:34.987Z,101995.78
2018-09-27T06:36:03.016Z,101997.97
2018-09-27T06:38:30.856Z,101994.24
2018-09-27T06:40:58.611Z,101999.51
2018-09-27T06:43:26.376Z,101996.48
2018-09-27T06:45:54.217Z,101995.47
2018-09-27T06:48:22.118Z,101993.06
2018-09-27T06:50:49.868Z,101993.89
2018-09-27T06:53:17.655Z,101988.10
2018-09-27T06:55:45.480Z,101978.59
2018-09-27T06:58:13.239Z,101980.73
2018-09-27T07:00:41.028Z,101982.76
2018-09-27T07:03:08.788Z,101982.39
2018-09-27T07:05:36.664Z,101982.39
2018-09-27T07:08:04.684Z,101974.23
2018-09-27T07:10:32.468Z,101978.27
2018-09-27T07:13:00.261Z,101975.69
2018-09-27T07:15:27.976Z,101977.38
2018-09-27T07:17:55.737Z,101981.92
2018-09-27T07:20:23.604Z,101979.02
2018-09-27T07:22:51.331Z,101980.00
2018-09-27T07:25:19.176Z,101971.97
2018-09-27T07:27:46.896Z,101975.00
2018-09-27T07:30:14.681Z,101968.78
2018-09-27T07:32:42.726Z,101969.61
2018-09-27T07:35:10.419Z,101971.48
2018-09-27T07:37:38.249Z,101975.84
2018-09-27T07:40:06.245Z,101973.70
2018-09-27T07:42:34.028Z,101978.38
2018-09-27T07:45:01.804Z,101976.08
2018-09-27T07:47:29.647Z,101974.92
2018-09-27T07:49:57.515Z,101978.58
2018-09-27T07:52:25.297Z,101977.31
2018-09-27T07:54:53.166Z,101975.17
2018-09-27T07:57:20.869Z,101977.41
2018-09-27T07:59:48.659Z,101969.94
2018-09-27T08:02:16.432Z,101966.70
2018-09-27T08:04:44.214Z,101968.80
2018-09-27T08:07:11.995Z,101964.03
2018-09-27T08:09:39.780Z,101961.66
2018-09-27T08:12:07.612Z,101957.36
2018-09-27T08:14:35.456Z,101965.39
2018-09-27T08:17:03.309Z,101959.41
2018-09-27T08:19:31.172Z,101963.05
2018-09-27T08:21:58.960Z,101960.98
2018-09-27T08:24:26.775Z,101964.25
2018-09-27T08:26:54.536Z,101962.22
2018-09-27T08:29:22.256Z,101959.75
2018-09-27T08:31:50.076Z,101957.78
2018-09-27T08:34:17.963Z,101952.89
2018-09-27T08:36:45.728Z,101951.89
2018-09-27T08:39:13.519Z,101944.08
2018-09-27T08:41:41.327Z,101951.09
2018-09-27T08:44:10.175Z,101936.92
2018-09-27T08:46:38.323Z,101940.42
2018-09-27T08:49:06.460Z,101936.59
2018-09-27T08:51:34.385Z,101942.48
2018-09-27T08:54:02.131Z,101931.66
2018-09-27T08:56:33.688Z,101928.54
2018-09-27T08:59:01.624Z,101925.52
2018-09-27T09:01:29.424Z,101920.67
2018-09-27T09:03:57.256Z,101922.27
2018-09-27T09:06:25.060Z,101919.85
2018-09-27T09:08:52.840Z,101917.00
2018-09-27T09:11:20.664Z,101919.22
2018-09-27T09:13:48.529Z,101917.02
2018-09-27T09:16:16.356Z,101911.75
2018-09-27T09:18:44.249Z,101908.79
2018-09-27T09:21:12.028Z,101907.97
2018-09-27T09:23:39.825Z,101901.20
2018-09-27T09:26:07.769Z,101903.50
2018-09-27T09:28:35.585Z,101897.11
2018-09-27T09:31:03.585Z,101891.11
2018-09-27T09:33:31.445Z,101889.47
2018-09-27T09:35:59.270Z,101888.06
2018-09-27T09:38:27.411Z,101879.75
2018-09-27T09:40:55.196Z,101882.52
2018-09-27T09:43:23.094Z,101873.94
2018-09-27T09:45:50.932Z,101871.23
2018-09-27T09:48:18.794Z,101866.97
2018-09-27T09:50:46.591Z,101862.66
2018-09-27T09:53:14.465Z,101861.02
2018-09-27T09:55:42.304Z,101852.93
2018-09-27T09:58:10.173Z,101852.12
2018-09-27T10:00:42.211Z,101851.05
2018-09-27T10:03:10.135Z,101848.47
2018-09-27T10:05:37.979Z,101843.92
2018-09-27T10:08:05.879Z,101836.27
2018-09-27T10:10:33.695Z,101831.62
2018-09-27T10:13:01.662Z,101835.85
2018-09-27T10:15:29.671Z,101828.42
2018-09-27T10:17:57.412Z,101826.52
2018-09-27T10:20:25.473Z,101831.63
2018-09-27T10:22:57.722Z,101828.88
2018-09-27T10:25:25.576Z,101815.13
2018-09-27T10:27:53.359Z,101817.73
2018-09-27T10:30:21.424Z,101810.64
2018-09-27T10:32:49.479Z,101804.21
2018-09-27T10:35:17.600Z,101802.33
2018-09-27T10:37:45.872Z,101792.69
2018-09-27T10:40:13.727Z,101789.17
2018-09-27T10:42:41.611Z,101790.42
2018-09-27T10:45:09.584Z,101788.08
2018-09-27T10:47:37.389Z,101789.14
2018-09-27T10:50:05.528Z,101781.41
2018-09-27T10:52:33.383Z,101781.82
2018-09-27T10:55:01.204Z,101773.25
2018-09-27T10:57:29.052Z,101766.14
2018-09-27T10:59:56.902Z,101766.24
2018-09-27T11:02:24.697Z,101762.09
2018-09-27T11:04:52.469Z,101753.11
2018-09-27T11:07:20.355Z,101752.22
2018-09-27T11:09:48.140Z,101733.95
2018-09-27T11:12:15.949Z,101733.89
2018-09-27T11:14:43.735Z,101734.12
2018-09-27T11:17:11.551Z,101734.69
2018-09-27T11:19:39.678Z,101734.19
2018-09-27T11:22:07.603Z,101720.67
2018-09-27T11:24:35.413Z,101720.84
2018-09-27T11:27:03.158Z,101715.61
2018-09-27T11:29:36.759Z,101707.53
2018-09-27T11:32:10.327Z,101702.24
2018-09-27T11:34:38.200Z,101691.32
2018-09-27T11:37:06.197Z,101682.53
2018-09-27T11:39:34.004Z,101674.16
2018-09-27T11:42:01.808Z,101673.92
2018-09-27T11:44:29.576Z,101666.85
2018-09-27T11:46:57.388Z,101668.16
2018-09-27T11:49:25.340Z,101661.87
2018-09-27T11:51:53.211Z,101658.44
2018-09-27T11:54:22.361Z,101648.98
2018-09-27T11:56:50.213Z,101639.92
2018-09-27T11:59:18.077Z,101639.83
2018-09-27T12:01:45.922Z,101628.06
2018-09-27T12:04:13.632Z,101625.06
2018-09-27T12:06:41.520Z,101617.17
2018-09-27T12:09:11.023Z,101612.29
2018-09-27T12:11:42.908Z,101606.02
2018-09-27T12:14:11.163Z,101601.59
2018-09-27T12:16:39.005Z,101601.42
2018-09-27T12:19:06.877Z,101592.57
2018-09-27T12:21:34.663Z,101590.74
2018-09-27T12:24:02.461Z,101590.34
2018-09-27T12:26:30.324Z,101583.45
2018-09-27T12:28:58.083Z,101576.61
2018-09-27T12:31:25.868Z,101573.48
2018-09-27T12:33:53.814Z,101566.11
2018-09-27T12:36:22.233Z,101556.84
2018-09-27T12:38:51.226Z,101556.84
2018-09-27T12:41:19.782Z,101556.45
2018-09-27T12:43:56.352Z,101551.22
2018-09-27T12:46:35.032Z,101541.78
2018-09-27T12:49:03.005Z,101534.48
2018-09-27T12:51:31.141Z,101536.28
2018-09-27T12:54:00.123Z,101533.10
2018-09-27T12:56:28.381Z,101536.07
2018-09-27T12:58:56.555Z,101519.75
2018-09-27T13:01:24.425Z,101513.12
2018-09-27T13:03:52.072Z,101514.73
2018-09-27T13:06:19.888Z,101503.78
2018-09-27T13:08:47.786Z,101503.78
2018-09-27T13:11:15.651Z,101498.02
2018-09-27T13:13:43.504Z,101490.45
2018-09-27T13:16:11.314Z,101488.86
2018-09-27T13:18:39.411Z,101475.41
2018-09-27T13:21:07.284Z,101475.16
2018-09-27T13:23:35.118Z,101470.08
2018-09-27T13:26:02.880Z,101462.86
2018-09-27T13:28:30.877Z,101454.63
2018-09-27T13:30:58.725Z,101446.27
2018-09-27T13:33:26.464Z,101442.55
2018-09-27T13:35:54.329Z,101436.81
2018-09-27T13:38:22.107Z,101433.16
2018-09-27T13:40:49.904Z,101427.05
2018-09-27T13:43:17.713Z,101416.86
2018-09-27T13:45:45.464Z,101413.50
2018-09-27T13:48:13.271Z,101403.74
2018-09-27T13:50:41.109Z,101404.09
2018-09-27T13:53:08.864Z,101395.77
2018-09-27T13:55:36.737Z,101388.37
2018-09-27T13:58:04.651Z,101387.45
2018-09-27T14:00:32.379Z,101385.84
2018-09-27T14:03:00.304Z,101380.84
2018-09-27T14:05:28.109Z,101378.05
2018-09-27T14:07:55.820Z,101373.59
2018-09-27T14:10:23.660Z,101368.28
2018-09-27T14:12:51.556Z,101360.75
2018-09-27T14:15:19.290Z,101360.02
2018-09-27T14:17:47.055Z,101354.44
2018-09-27T14:20:14.904Z,101351.83
2018-09-27T14:22:42.660Z,101350.98
2018-09-27T14:25:10.414Z,101350.98
2018-09-27T14:27:38.187Z,101348.78
2018-09-27T14:30:06.066Z,101335.39
2018-09-27T14:32:33.885Z,101335.39
2018-09-27T14:35:01.713Z,101330.38
2018-09-27T14:37:29.572Z,101327.95
2018-09-27T14:39:57.327Z,101325.69
2018-09-27T14:42:25.786Z,101319.48
2018-09-27T14:44:53.596Z,101315.87
2018-09-27T14:47:22.082Z,101313.13
2018-09-27T14:49:49.915Z,101309.73
2018-09-27T14:52:17.682Z,101312.61
2018-09-27T14:54:45.486Z,101301.98
2018-09-27T14:57:13.293Z,101302.77
2018-09-27T14:59:41.148Z,101302.81
2018-09-27T15:02:08.990Z,101288.63
2018-09-27T15:04:36.748Z,101287.80
2018-09-27T15:07:04.744Z,101287.84
2018-09-27T15:09:32.660Z,101280.87
2018-09-27T15:12:00.403Z,101278.30
2018-09-27T15:14:28.367Z,101274.98
2018-09-27T15:16:56.113Z,101265.59
2018-09-27T15:19:24.108Z,101268.93
2018-09-27T15:21:51.932Z,101261.39
2018-09-27T15:24:19.709Z,101258.66
2018-09-27T15:26:47.630Z,101256.14
2018-09-27T15:29:15.484Z,101250.56
2018-09-27T15:31:43.336Z,101245.06
2018-09-27T15:34:11.190Z,101245.09
2018-09-27T15:36:39.078Z,101241.47
2018-09-27T15:39:07.605Z,101237.86
2018-09-27T15:41:35.388Z,101235.36
2018-09-27T15:44:03.251Z,101234.81
2018-09-27T15:46:31.019Z,101231.74
2018-09-27T15:48:58.860Z,101226.79
2018-09-27T15:51:26.694Z,101226.63
2018-09-27T15:53:58.288Z,101224.63
2018-09-27T15:56:26.168Z,101221.14
2018-09-27T15:58:54.093Z,101220.02
2018-09-27T16:01:21.910Z,101218.98
2018-09-27T16:03:49.803Z,101223.20
2018-09-27T16:06:17.533Z,101212.67
2018-09-27T16:08:45.364Z,101206.58
2018-09-27T16:11:13.171Z,101207.45
2018-09-27T16:13:41.036Z,101206.93
2018-09-27T16:16:08.849Z,101205.89
2018-09-27T16:18:36.630Z,101202.63
2018-09-27T16:21:04.456Z,101202.14
2018-09-27T16:23:32.261Z,101194.31
2018-09-27T16:26:00.052Z,101191.61
2018-09-27T16:28:27.832Z,101194.44
2018-09-27T16:30:55.699Z,101192.53
2018-09-27T16:33:23.570Z,101193.88
2018-09-27T16:35:51.301Z,101187.86
2018-09-27T16:38:19.115Z,101189.86
2018-09-27T16:40:46.903Z,101190.69
2018-09-27T16:43:14.740Z,101184.14
2018-09-27T16:45:42.588Z,101183.45
2018-09-27T16:48:10.593Z,101178.80
2018-09-27T16:50:38.772Z,101174.09
2018-09-27T16:53:07.056Z,101174.42
2018-09-27T16:55:34.824Z,101169.10
2018-09-27T16:58:02.579Z,101175.84
2018-09-27T17:00:30.469Z,101173.73
2018-09-27T17:02:58.300Z,101172.95
2018-09-27T17:05:26.157Z,101170.75
2018-09-27T17:07:53.992Z,101160.55
2018-09-27T17:10:21.847Z,101157.29
2018-09-27T17:12:49.644Z,101158.73
2018-09-27T17:15:17.525Z,101151.55
2018-09-27T17:17:48.556Z,101157.97
2018-09-27T17:20:16.343Z,101159.39
2018-09-27T17:22:44.229Z,101157.50
2018-09-27T17:25:12.036Z,101154.46
2018-09-27T17:27:39.855Z,101153.34
2018-09-27T17:30:08.091Z,101155.53
2018-09-27T17:32:35.908Z,101155.52
2018-09-27T17:35:03.748Z,101144.12
2018-09-27T17:37:31.733Z,101151.33
2018-09-27T17:39:59.708Z,101144.98
2018-09-27T17:42:27.529Z,101138.60
2018-09-27T17:44:55.411Z,101140.83
2018-09-27T17:47:23.242Z,101139.66
2018-09-27T17:49:51.052Z,101139.65
2018-09-27T17:52:18.896Z,101147.83
2018-09-27T17:54:47.084Z,101146.31
2018-09-27T17:57:19.341Z,101155.65
2018-09-27T17:59:47.756Z,101150.81
2018-09-27T18:02:15.778Z,101147.69
2018-09-27T18:04:43.576Z,101159.13
2018-09-27T18:07:11.540Z,101152.16
2018-09-27T18:09:39.375Z,101158.37
2018-09-27T18:12:07.312Z,101160.35
2018-09-27T18:14:35.265Z,101161.98
2018-09-27T18:17:03.176Z,101156.59
2018-09-27T18:19:31.414Z,101151.41
2018-09-27T18:21:59.534Z,101155.16
2018-09-27T18:24:27.454Z,101156.95
2018-09-27T18:26:55.331Z,101155.47
2018-09-27T18:29:23.160Z,101158.69
2018-09-27T18:31:50.956Z,101158.44
2018-09-27T18:34:18.792Z,101158.23
2018-09-27T18:36:46.677Z,101151.52
2018-09-27T18:39:14.432Z,101150.53
2018-09-27T18:41:42.616Z,101148.71
2018-09-27T18:44:11.056Z,101144.81
2018-09-27T18:46:38.839Z,101144.62
2018-09-27T18:49:07.722Z,101140.11
2018-09-27T18:51:35.568Z,101140.17
2018-09-27T18:54:03.539Z,101136.63
2018-09-27T18:56:40.979Z,101136.57
2018-09-27T18:59:09.011Z,101132.44
2018-09-27T19:01:37.777Z,101134.84
2018-09-27T19:04:05.997Z,101139.74
2018-09-27T19:06:34.064Z,101146.22
2018-09-27T19:09:03.870Z,101138.95
2018-09-27T19:11:31.640Z,101136.42
2018-09-27T19:14:00.935Z,101130.23
2018-09-27T19:16:31.070Z,101135.88
2018-09-27T19:19:02.179Z,101133.59
2018-09-27T19:21:30.363Z,101131.43
2018-09-27T19:23:58.188Z,101126.73
2018-09-27T19:26:30.305Z,101128.03
2018-09-27T19:28:58.703Z,101118.05
2018-09-27T19:31:28.809Z,101119.17
2018-09-27T19:33:58.717Z,101125.86
2018-09-27T19:36:27.332Z,101130.22
2018-09-27T19:39:00.258Z,101131.80
2018-09-27T19:41:34.044Z,101122.76
2018-09-27T19:44:09.381Z,101121.52
2018-09-27T19:46:38.573Z,101125.53
2018-09-27T19:49:07.604Z,101112.83
2018-09-27T19:51:35.767Z,101116.95
2018-09-27T19:54:05.553Z,101111.63
2018-09-27T19:56:33.319Z,101118.00
2018-09-27T19:59:01.273Z,101110.78
2018-09-27T20:01:29.447Z,101112.93
2018-09-27T20:04:05.427Z,101111.15
2018-09-27T20:06:39.493Z,101110.95
2018-09-27T20:09:13.399Z,101111.27
2018-09-27T20:11:47.292Z,101110.67
2018-09-27T20:14:23.906Z,101109.92
2018-09-27T20:16:51.999Z,101112.31
2018-09-27T20:19:19.687Z,101112.05
2018-09-27T20:21:47.540Z,101115.48
2018-09-27T20:24:15.308Z,101124.79
2018-09-27T20:26:43.132Z,101121.70
2018-09-27T20:29:10.872Z,101125.13
2018-09-27T20:31:38.959Z,101124.70
2018-09-27T20:34:06.828Z,101127.04
2018-09-27T20:36:34.557Z,101128.96
2018-09-27T20:39:02.920Z,101126.90
2018-09-27T20:41:30.693Z,101131.50
2018-09-27T20:43:58.504Z,101128.46
2018-09-27T20:46:26.322Z,101129.03
2018-09-27T20:48:54.133Z,101124.88
2018-09-27T20:51:21.923Z,101120.05
2018-09-27T20:53:49.842Z,101128.25
2018-09-27T20:56:17.613Z,101123.84
2018-09-27T20:58:45.463Z,101124.29
2018-09-27T21:01:13.267Z,101120.17
2018-09-27T21:03:41.048Z,101124.61
2018-09-27T21:06:08.900Z,101122.66
2018-09-27T21:08:36.732Z,101119.68
2018-09-27T21:11:04.567Z,101118.15
2018-09-27T21:13:32.364Z,101128.64
2018-09-27T21:16:00.189Z,101123.84
2018-09-27T21:18:27.960Z,101117.39
2018-09-27T21:20:55.857Z,101115.94
2018-09-27T21:23:23.717Z,101113.77
2018-09-27T21:25:51.519Z,101106.52
2018-09-27T21:28:19.383Z,101106.89
2018-09-27T21:30:47.248Z,101104.45
2018-09-27T21:33:15.075Z,101099.30
2018-09-27T21:35:42.871Z,101100.97
2018-09-27T21:38:10.720Z,101102.63
2018-09-27T21:40:38.527Z,101101.70
2018-09-27T21:43:06.517Z,101099.80
2018-09-27T21:45:34.319Z,101100.03
2018-09-27T21:48:02.127Z,101104.05
2018-09-27T21:50:30.063Z,101098.93
2018-09-27T21:52:57.791Z,101099.77
2018-09-27T21:55:25.572Z,101101.54
2018-09-27T21:57:53.430Z,101097.23
2018-09-27T22:00:21.281Z,101091.02
2018-09-27T22:02:48.994Z,101090.95
2018-09-27T22:05:16.778Z,101088.64
2018-09-27T22:07:44.591Z,101081.44
2018-09-27T22:10:12.376Z,101092.45
2018-09-27T22:12:40.172Z,101087.56
2018-09-27T22:15:08.091Z,101086.70
2018-09-27T22:17:35.903Z,101086.77
2018-09-27T22:20:03.809Z,101085.92
2018-09-27T22:22:31.610Z,101083.39
2018-09-27T22:24:59.469Z,101089.77
2018-09-27T22:27:27.336Z,101084.34
2018-09-27T22:29:55.168Z,101082.77
2018-09-27T22:32:22.931Z,101075.89
2018-09-27T22:34:50.691Z,101077.72
2018-09-27T22:37:18.783Z,101075.86
2018-09-27T22:39:46.628Z,101074.53
2018-09-27T22:42:14.455Z,101074.00
2018-09-27T22:44:42.313Z,101068.76
2018-09-27T22:47:10.160Z,101065.80
2018-09-27T22:49:38.047Z,101065.31
2018-09-27T22:52:05.937Z,101070.73
2018-09-27T22:54:33.715Z,101066.98
2018-09-27T22:57:01.536Z,101072.52
2018-09-27T22:59:29.291Z,101061.78
2018-09-27T23:01:57.141Z,101060.14
2018-09-27T23:04:25.071Z,101055.82
2018-09-27T23:06:52.871Z,101060.22
2018-09-27T23:09:20.843Z,101053.13
2018-09-27T23:11:48.827Z,101054.27
2018-09-27T23:14:16.629Z,101054.75
2018-09-27T23:16:44.497Z,101056.11
2018-09-27T23:19:12.295Z,101050.09
2018-09-27T23:21:40.087Z,101048.98
2018-09-27T23:24:07.967Z,101048.54
2018-09-27T23:26:35.816Z,101046.60
2018-09-27T23:29:04.739Z,101047.95
2018-09-27T23:31:32.583Z,101045.97
2018-09-27T23:34:00.443Z,101045.75
2018-09-27T23:36:28.279Z,101046.55
2018-09-27T23:38:56.196Z,101040.52
2018-09-27T23:41:24.087Z,101042.81
2018-09-27T23:43:51.948Z,101048.34
2018-09-27T23:46:19.829Z,101040.81
2018-09-27T23:48:47.668Z,101047.50
2018-09-27T23:51:15.464Z,101050.64
2018-09-27T23:53:43.299Z,101038.91
2018-09-27T23:56:11.072Z,101047.78
2018-09-27T23:58:38.899Z,101045.43
